createdAt,value
2023-03-05T00:01:13.234Z,96123.50
2023-03-05T00:03:40.102Z,96126.97
2023-03-05T00:06:07.369Z,96135.22
2023-03-05T00:08:34.740Z,96122.19
2023-03-05T00:11:03.175Z,96121.94
2023-03-05T00:13:30.804Z,96128.06
2023-03-05T00:15:57.883Z,96119.03
2023-03-05T00:18:25.132Z,96123.03
2023-03-05T00:20:52.033Z,96121.69
2023-03-05T00:23:18.836Z,96126.75
2023-03-05T00:25:49.816Z,96123.84
2023-03-05T00:28:16.699Z,96118.78
2023-03-05T00:30:43.750Z,96121.16
2023-03-05T00:33:12.048Z,96126.22
2023-03-05T00:35:43.141Z,96124.88
2023-03-05T00:38:10.445Z,96116.91
2023-03-05T00:40:41.447Z,96120.38
2023-03-05T00:43:13.449Z,96120.63
2023-03-05T00:45:40.379Z,96122.75
2023-03-05T00:48:07.262Z,96121.69
2023-03-05T00:50:34.194Z,96122.50
2023-03-05T00:53:01.175Z,96127.03
2023-03-05T00:55:28.200Z,96118.25
2023-03-05T00:57:55.214Z,96123.28
2023-03-05T01:00:22.212Z,96122.50
2023-03-05T01:02:48.993Z,96114.25
2023-03-05T01:05:15.955Z,96119.03
2023-03-05T01:07:43.012Z,96114.00
2023-03-05T01:10:10.705Z,96119.31
2023-03-05T01:12:37.567Z,96116.38
2023-03-05T01:15:05.010Z,96103.63
2023-03-05T01:17:32.253Z,96117.47
2023-03-05T01:20:01.456Z,96128.09
2023-03-05T01:22:28.917Z,96115.63
2023-03-05T01:24:55.821Z,96126.25
2023-03-05T01:27:22.951Z,96115.34
2023-03-05T01:29:49.765Z,96123.31
2023-03-05T01:32:16.760Z,96115.88
2023-03-05T01:34:43.764Z,96112.94
2023-03-05T01:37:10.823Z,96110.03
2023-03-05T01:39:37.794Z,96116.16
2023-03-05T01:42:05.020Z,96116.16
2023-03-05T01:44:32.658Z,96121.44
2023-03-05T01:46:59.875Z,96121.16
2023-03-05T01:49:29.335Z,96112.66
2023-03-05T01:52:11.772Z,96114.25
2023-03-05T01:54:40.690Z,96110.53
2023-03-05T01:57:16.291Z,96117.44
2023-03-05T01:59:44.907Z,96110.53
2023-03-05T02:02:13.193Z,96104.44
2023-03-05T02:04:46.170Z,96113.97
2023-03-05T02:07:13.388Z,96112.13
2023-03-05T02:09:41.238Z,96111.59
2023-03-05T02:12:10.456Z,96136.28
2023-03-05T02:14:37.959Z,96113.44
2023-03-05T02:17:05.292Z,96110.00
2023-03-05T02:19:46.163Z,96110.00
2023-03-05T02:22:17.132Z,96115.53
2023-03-05T02:24:43.964Z,96106.78
2023-03-05T02:27:12.716Z,96106.53
2023-03-05T02:29:42.113Z,96109.44
2023-03-05T02:32:09.755Z,96115.00
2023-03-05T02:34:37.059Z,96101.75
2023-03-05T02:37:05.012Z,96113.94
2023-03-05T02:39:34.910Z,96108.91
2023-03-05T02:42:02.220Z,96103.84
2023-03-05T02:44:29.380Z,96098.28
2023-03-05T02:46:56.211Z,96096.94
2023-03-05T02:49:23.122Z,96101.47
2023-03-05T02:51:50.044Z,96107.03
2023-03-05T02:54:17.524Z,96101.47
2023-03-05T02:56:44.445Z,96098.81
2023-03-05T02:59:11.554Z,96107.56
2023-03-05T03:01:38.623Z,96089.53
2023-03-05T03:04:07.339Z,96111.81
2023-03-05T03:06:34.346Z,96089.25
2023-03-05T03:09:01.235Z,96087.66
2023-03-05T03:11:28.162Z,96087.91
2023-03-05T03:13:55.026Z,96094.03
2023-03-05T03:16:21.869Z,96095.09
2023-03-05T03:18:49.116Z,96079.16
2023-03-05T03:21:23.752Z,96094.28
2023-03-05T03:23:50.893Z,96085.78
2023-03-05T03:26:17.968Z,96076.25
2023-03-05T03:28:45.239Z,96085.53
2023-03-05T03:31:12.397Z,96081.81
2023-03-05T03:33:39.362Z,96085.81
2023-03-05T03:36:06.776Z,96086.34
2023-03-05T03:38:33.662Z,96086.06
2023-03-05T03:41:00.528Z,96087.41
2023-03-05T03:43:27.339Z,96087.66
2023-03-05T03:45:55.181Z,96089.00
2023-03-05T03:48:22.158Z,96078.38
2023-03-05T03:50:49.031Z,96089.00
2023-03-05T03:53:17.606Z,96088.50
2023-03-05T03:55:46.575Z,96087.44
2023-03-05T03:58:13.631Z,96079.47
2023-03-05T04:00:40.985Z,96085.56
2023-03-05T04:03:08.411Z,96083.72
2023-03-05T04:05:35.260Z,96080.28
2023-03-05T04:08:02.180Z,96076.81
2023-03-05T04:10:29.042Z,96071.50
2023-03-05T04:12:56.792Z,96083.72
2023-03-05T04:15:23.713Z,96069.38
2023-03-05T04:17:50.563Z,96084.25
2023-03-05T04:20:17.762Z,96087.16
2023-03-05T04:22:44.693Z,96078.69
2023-03-05T04:25:12.009Z,96080.81
2023-03-05T04:27:40.509Z,96073.09
2023-03-05T04:30:08.933Z,96081.88
2023-03-05T04:32:35.918Z,96088.50
2023-03-05T04:35:02.962Z,96085.84
2023-03-05T04:37:29.860Z,96084.00
2023-03-05T04:39:58.406Z,96080.81
2023-03-05T04:42:26.475Z,96075.50
2023-03-05T04:44:53.368Z,96080.81
2023-03-05T04:47:20.416Z,96080.53
2023-03-05T04:49:47.260Z,96085.06
2023-03-05T04:52:14.928Z,96088.50
2023-03-05T04:54:41.857Z,96091.16
2023-03-05T04:57:09.091Z,96104.97
2023-03-05T04:59:36.984Z,96098.06
2023-03-05T05:02:04.616Z,96085.31
2023-03-05T05:04:32.100Z,96097.00
2023-03-05T05:07:01.164Z,96097.53
2023-03-05T05:09:29.178Z,96100.47
2023-03-05T05:11:56.101Z,96105.53
2023-03-05T05:14:23.254Z,96104.47
2023-03-05T05:16:50.452Z,96096.47
2023-03-05T05:19:17.660Z,96097.53
2023-03-05T05:21:46.730Z,96104.44
2023-03-05T05:24:13.600Z,96112.44
2023-03-05T05:26:40.528Z,96105.25
2023-03-05T05:29:07.445Z,96100.75
2023-03-05T05:31:34.495Z,96102.88
2023-03-05T05:34:01.560Z,96112.97
2023-03-05T05:36:28.651Z,96107.63
2023-03-05T05:38:55.988Z,96115.31
2023-03-05T05:41:22.843Z,96114.28
2023-03-05T05:43:50.335Z,96104.44
2023-03-05T05:46:18.609Z,96106.56
2023-03-05T05:48:47.137Z,96116.91
2023-03-05T05:51:23.896Z,96129.38
2023-03-05T05:53:51.182Z,96116.06
2023-03-05T05:56:18.879Z,96114.22
2023-03-05T05:58:47.755Z,96119.53
2023-03-05T06:01:21.580Z,96127.75
2023-03-05T06:03:48.609Z,96125.63
2023-03-05T06:06:17.939Z,96124.03
2023-03-05T06:08:44.817Z,96121.91
2023-03-05T06:11:12.127Z,96129.88
2023-03-05T06:13:39.075Z,96118.72
2023-03-05T06:16:07.721Z,96125.09
2023-03-05T06:18:35.068Z,96130.69
2023-03-05T06:21:03.827Z,96132.56
2023-03-05T06:23:31.206Z,96129.88
2023-03-05T06:26:02.151Z,96130.16
2023-03-05T06:28:29.029Z,96129.38
2023-03-05T06:31:02.090Z,96141.34
2023-03-05T06:33:31.082Z,96128.06
2023-03-05T06:35:58.817Z,96131.78
2023-03-05T06:38:26.421Z,96136.56
2023-03-05T06:40:53.442Z,96145.63
2023-03-05T06:43:22.671Z,96140.03
2023-03-05T06:45:50.071Z,96151.97
2023-03-05T06:48:43.262Z,96140.00
2023-03-05T06:51:14.837Z,96146.09
2023-03-05T06:53:42.586Z,96159.38
2023-03-05T06:56:09.977Z,96153.78
2023-03-05T06:58:40.548Z,96159.91
2023-03-05T07:01:07.667Z,96166.78
2023-03-05T07:03:35.401Z,96169.44
2023-03-05T07:06:04.503Z,96165.19
2023-03-05T07:08:31.537Z,96164.66
2023-03-05T07:10:58.421Z,96167.88
2023-03-05T07:13:26.298Z,96167.03
2023-03-05T07:15:53.550Z,96180.84
2023-03-05T07:18:23.464Z,96184.03
2023-03-05T07:20:50.471Z,96181.63
2023-03-05T07:23:17.484Z,96173.41
2023-03-05T07:25:44.271Z,96193.09
2023-03-05T07:28:11.157Z,96188.88
2023-03-05T07:30:38.074Z,96198.19
2023-03-05T07:33:05.251Z,96196.88
2023-03-05T07:35:32.720Z,96200.31
2023-03-05T07:37:59.869Z,96197.38
2023-03-05T07:40:27.120Z,96207.25
2023-03-05T07:42:54.721Z,96214.44
2023-03-05T07:45:30.014Z,96215.50
2023-03-05T07:47:57.315Z,96217.34
2023-03-05T07:50:24.664Z,96215.72
2023-03-05T07:52:51.608Z,96226.34
2023-03-05T07:55:18.885Z,96239.66
2023-03-05T07:57:46.241Z,96249.78
2023-03-05T08:00:15.708Z,96232.47
2023-03-05T08:02:45.253Z,96241.00
2023-03-05T08:05:12.488Z,96257.78
2023-03-05T08:07:39.560Z,96270.28
2023-03-05T08:10:07.078Z,96256.69
2023-03-05T08:13:09.459Z,96255.91
2023-03-05T08:15:53.614Z,96252.44
2023-03-05T08:18:20.451Z,96279.84
2023-03-05T08:20:47.443Z,96266.78
2023-03-05T08:23:14.793Z,96270.75
2023-03-05T08:25:41.589Z,96292.31
2023-03-05T08:28:09.005Z,96287.78
2023-03-05T08:30:37.874Z,96289.91
2023-03-05T08:33:04.774Z,96290.72
2023-03-05T08:35:32.219Z,96308.81
2023-03-05T08:37:59.196Z,96307.47
2023-03-05T08:40:26.014Z,96301.63
2023-03-05T08:42:54.920Z,96314.66
2023-03-05T08:45:21.655Z,96316.53
2023-03-05T08:47:49.301Z,96316.25
2023-03-05T08:50:39.062Z,96326.13
2023-03-05T08:53:58.482Z,96321.59
2023-03-05T08:56:35.806Z,96334.38
2023-03-05T08:59:04.267Z,96343.44
2023-03-05T09:01:32.771Z,96327.72
2023-03-05T09:04:04.829Z,96341.31
2023-03-05T09:06:41.510Z,96349.28
2023-03-05T09:09:09.677Z,96351.72
2023-03-05T09:11:38.963Z,96353.28
2023-03-05T09:14:07.729Z,96356.22
2023-03-05T09:16:46.259Z,96351.44
2023-03-05T09:19:20.644Z,96354.38
2023-03-05T09:27:11.545Z,96368.75
2023-03-05T09:34:56.951Z,96394.31
2023-03-05T10:56:57.617Z,96522.94
2023-03-05T11:19:35.906Z,96579.97
2023-03-05T12:16:02.115Z,96684.28
2023-03-05T12:19:05.697Z,96707.66
2023-03-05T12:21:39.741Z,96680.75
2023-03-05T12:24:28.506Z,96689.53
2023-03-05T12:27:22.985Z,96709.75
2023-03-05T12:30:14.699Z,96704.16
2023-03-05T12:47:06.420Z,96753.00
2023-03-05T13:20:22.342Z,96772.44
2023-03-05T13:35:15.011Z,96795.59
2023-03-05T14:43:31.088Z,96891.19
2023-03-05T14:46:01.546Z,96895.69
2023-03-05T14:48:28.508Z,96898.56
2023-03-05T14:50:59.134Z,96892.09
2023-03-05T14:53:32.011Z,96897.91
2023-03-05T14:56:44.123Z,96904.22
2023-03-05T15:05:36.471Z,96921.53
2023-03-05T15:08:21.972Z,96932.16
2023-03-05T15:11:11.566Z,96931.63
2023-03-05T15:14:06.532Z,96934.53
2023-03-05T15:17:19.272Z,96945.97
2023-03-05T15:20:09.105Z,96936.88
2023-03-05T15:23:01.437Z,96944.53
2023-03-05T15:25:32.029Z,96957.03
2023-03-05T15:29:05.397Z,96954.94
2023-03-05T15:34:24.297Z,96951.53
2023-03-05T15:37:52.562Z,96963.75
2023-03-05T15:43:42.721Z,96975.81
2023-03-05T15:46:09.828Z,96971.00
2023-03-05T15:48:56.346Z,96970.19
2023-03-05T15:51:31.788Z,96971.50
2023-03-05T15:54:11.224Z,96981.31
2023-03-05T15:56:43.397Z,96974.88
2023-03-05T16:02:02.044Z,96979.34
2023-03-05T16:04:40.437Z,96985.16
2023-03-05T16:07:23.714Z,96980.31
2023-03-05T16:13:36.424Z,96989.91
2023-03-05T16:20:19.015Z,97001.03
2023-03-05T16:22:51.088Z,97000.63
2023-03-05T16:25:22.856Z,97004.47
2023-03-05T16:28:01.777Z,97009.03
2023-03-05T16:33:28.205Z,97009.41
2023-03-05T16:36:30.124Z,97003.59
2023-03-05T16:39:08.767Z,97010.78
2023-03-05T16:44:49.407Z,97024.50
2023-03-05T16:56:45.974Z,97044.44
2023-03-05T17:44:40.056Z,97058.47
2023-03-05T17:47:10.696Z,97050.50
2023-03-05T17:49:40.549Z,97058.47
2023-03-05T17:52:14.179Z,97058.22
2023-03-05T17:59:21.127Z,97063.13
2023-03-05T18:08:48.162Z,97073.53
2023-03-05T18:11:58.526Z,97067.41
2023-03-05T18:29:44.111Z,97072.53
2023-03-05T18:44:51.074Z,97087.22
2023-03-05T19:02:45.894Z,97092.19
2023-03-05T19:05:19.588Z,97098.25
2023-03-05T19:30:57.706Z,97099.31
2023-03-05T19:33:51.678Z,97095.16
2023-03-05T19:36:24.465Z,97097.41
2023-03-05T19:39:05.583Z,97102.56
2023-03-05T19:42:53.521Z,97101.34
2023-03-05T19:46:30.201Z,97095.88
2023-03-05T19:52:53.395Z,97102.88
2023-03-05T19:56:01.577Z,97094.41
2023-03-05T20:05:18.587Z,97095.59
2023-03-05T20:07:50.223Z,97109.44
2023-03-05T20:10:19.345Z,97112.09
2023-03-05T20:13:19.910Z,97103.56
2023-03-05T20:16:11.131Z,97109.69
2023-03-05T20:18:41.176Z,97102.50
2023-03-05T20:22:01.563Z,97104.38
2023-03-05T20:28:03.926Z,97100.50
2023-03-05T20:33:28.387Z,97102.97
2023-03-05T20:55:06.738Z,97100.78
2023-03-05T21:02:45.537Z,97102.06
2023-03-05T21:06:17.708Z,97110.09
2023-03-05T21:35:30.322Z,97117.81
2023-03-05T21:41:11.183Z,97117.81
2023-03-05T21:47:15.457Z,97113.56
2023-03-05T21:49:58.753Z,97117.81
2023-03-05T21:52:51.659Z,97118.63
2023-03-05T21:57:40.875Z,97127.91
2023-03-05T22:11:43.446Z,97120.00
2023-03-05T22:21:59.253Z,97135.41
2023-03-05T22:28:11.735Z,97128.09
2023-03-05T22:33:58.396Z,97135.19
2023-03-05T22:40:32.303Z,97126.47
2023-03-05T22:46:52.476Z,97124.22
2023-03-05T22:56:53.450Z,97127.50
2023-03-05T23:10:15.242Z,97114.56
2023-03-05T23:17:11.183Z,97111.34
2023-03-05T23:23:34.096Z,97127.91
2023-03-05T23:26:23.793Z,97115.34
2023-03-05T23:37:01.323Z,97121.16
2023-03-05T23:40:29.716Z,97130.19
2023-03-05T23:47:12.081Z,97124.06
2023-03-05T23:56:22.585Z,97131.06
2023-03-05T23:59:42.646Z,97130.13
